Kelowna, Canada
Current Conditions -  °F | °C
As of 11:00 AM on Sunday 23 Nov 2014 (Local Time) from CYLW Reporting Station
Light Rain Light Rain  
Wind Chill: 39°   Ceiling: 3700
Heat Index: 39°   Visibility: 9mi
Dew Point: 32°   Wind: 3mph
Humidity: 75%   Direction: 140°SE
Pressure: 29.93"   Gusts: NA
Location:  49.89°N, 119.5°W
Report Text: CYLW 231900Z AUTO 14003KT 130V190 9SM -RA OVC037 04/M00 A2993 RMK SLP151
Loading
Personal Weather Stations






























Interactive Weather Map New forecast layout! Learn more

10-Day Weather Forecast

Advertisements
Track Severe Weather on mobile